createdAt,value
2022-11-10T00:04:30.657Z,99817.44
2022-11-10T00:09:52.706Z,99810.13
2022-11-10T00:15:31.161Z,99809.94
2022-11-10T00:20:51.498Z,99817.84
2022-11-10T00:26:14.103Z,99820.13
2022-11-10T00:31:34.138Z,99830.97
2022-11-10T00:36:54.281Z,99837.06
2022-11-10T00:42:14.673Z,99829.09
2022-11-10T00:47:34.817Z,99847.50
2022-11-10T00:52:55.105Z,99858.91
2022-11-10T00:58:15.520Z,99863.31
2022-11-10T01:03:35.897Z,99869.16
2022-11-10T01:08:55.999Z,99879.28
2022-11-10T01:14:16.376Z,99884.00
2022-11-10T01:19:36.735Z,99882.63
2022-11-10T01:24:56.984Z,99888.34
2022-11-10T01:30:17.323Z,99891.06
2022-11-10T01:35:38.170Z,99890.94
2022-11-10T01:40:58.821Z,99898.38
2022-11-10T01:46:18.912Z,99900.25
2022-11-10T01:51:58.243Z,99897.78
2022-11-10T01:57:18.502Z,99916.94
2022-11-10T02:02:46.235Z,99906.53
2022-11-10T02:08:07.216Z,99910.41
2022-11-10T02:13:27.668Z,99911.94
2022-11-10T02:18:49.007Z,99911.44
2022-11-10T02:24:09.221Z,99921.50
2022-11-10T02:29:29.514Z,99923.38
2022-11-10T02:34:49.822Z,99942.03
2022-11-10T02:40:10.376Z,99945.78
2022-11-10T02:45:30.579Z,99955.19
2022-11-10T02:50:51.009Z,99977.53
2022-11-10T02:56:11.251Z,99988.31
2022-11-10T03:01:31.536Z,99990.84
2022-11-10T03:06:51.722Z,99996.38
2022-11-10T03:12:11.935Z,100004.94
2022-11-10T03:17:31.976Z,100013.53
2022-11-10T03:22:52.266Z,100021.94
2022-11-10T03:28:12.647Z,100026.13
2022-11-10T03:33:32.987Z,100023.25
2022-11-10T03:38:53.082Z,100031.16
2022-11-10T03:44:13.400Z,100026.44
2022-11-10T03:49:33.788Z,100039.00
2022-11-10T03:54:56.995Z,100049.59
2022-11-10T04:00:20.173Z,100059.69
2022-11-10T04:05:58.752Z,100068.59
2022-11-10T04:11:42.279Z,100064.34
2022-11-10T04:17:03.692Z,100074.25
2022-11-10T04:22:42.509Z,100096.81
2022-11-10T04:28:02.768Z,100091.25
2022-11-10T04:33:23.258Z,100097.47
2022-11-10T04:38:43.872Z,100107.88
2022-11-10T04:44:04.297Z,100104.19
2022-11-10T04:49:24.655Z,100113.25
2022-11-10T04:54:44.985Z,100120.97
2022-11-10T05:00:07.538Z,100126.63
2022-11-10T05:05:28.316Z,100133.97
2022-11-10T05:10:48.123Z,100135.31
2022-11-10T05:16:09.053Z,100143.94
2022-11-10T05:21:29.525Z,100161.13
2022-11-10T05:26:49.780Z,100171.97
2022-11-10T05:32:09.796Z,100167.25
2022-11-10T05:37:30.101Z,100182.50
2022-11-10T05:42:54.718Z,100180.28
2022-11-10T05:48:14.659Z,100188.66
2022-11-10T05:53:34.818Z,100199.41
2022-11-10T05:58:55.301Z,100197.34
2022-11-10T06:04:15.383Z,100208.25
2022-11-10T06:09:35.682Z,100222.00
2022-11-10T06:14:59.008Z,100220.69
2022-11-10T06:20:19.686Z,100232.22
2022-11-10T06:25:41.688Z,100250.44
2022-11-10T06:31:01.725Z,100275.19
2022-11-10T06:36:22.949Z,100286.69
2022-11-10T06:41:43.289Z,100304.44
2022-11-10T06:47:03.456Z,100318.06
2022-11-10T06:52:23.624Z,100329.44
2022-11-10T06:57:43.943Z,100343.31
2022-11-10T07:03:06.860Z,100350.16
2022-11-10T07:08:27.042Z,100359.59
2022-11-10T07:13:47.224Z,100363.81
2022-11-10T07:19:07.574Z,100376.81
2022-11-10T07:24:30.420Z,100395.88
2022-11-10T07:29:50.533Z,100403.78
2022-11-10T07:35:10.848Z,100417.53
2022-11-10T07:40:31.336Z,100428.03
2022-11-10T07:45:52.385Z,100428.63
2022-11-10T07:51:12.655Z,100436.28
2022-11-10T07:56:32.770Z,100444.06
2022-11-10T08:01:52.975Z,100451.50
2022-11-10T08:07:13.299Z,100460.69
2022-11-10T08:12:33.891Z,100466.44
2022-11-10T08:18:00.408Z,100473.25
2022-11-10T08:23:20.955Z,100490.25
2022-11-10T08:28:41.431Z,100489.94
2022-11-10T08:34:01.670Z,100501.22
2022-11-10T08:39:38.144Z,100514.19
2022-11-10T08:44:59.135Z,100513.19
2022-11-10T08:50:19.472Z,100523.34
2022-11-10T08:55:40.836Z,100520.13
2022-11-10T09:01:01.234Z,100536.59
2022-11-10T09:06:21.552Z,100545.25
2022-11-10T09:11:41.736Z,100560.34
2022-11-10T09:17:02.068Z,100574.50
2022-11-10T09:22:22.349Z,100562.91
2022-11-10T09:27:42.603Z,100574.19
2022-11-10T09:33:02.835Z,100573.69
2022-11-10T09:38:23.396Z,100583.97
2022-11-10T09:44:11.241Z,100593.50
2022-11-10T09:49:49.573Z,100590.84
2022-11-10T09:55:18.891Z,100609.47
2022-11-10T10:00:42.621Z,100614.50
2022-11-10T10:06:14.585Z,100623.16
2022-11-10T10:11:43.521Z,100629.16
2022-11-10T10:17:24.798Z,100631.34
2022-11-10T10:22:58.954Z,100616.16
2022-11-10T10:28:19.050Z,100607.22
2022-11-10T10:33:39.764Z,100624.13
2022-11-10T10:39:10.036Z,100628.66
2022-11-10T10:44:30.320Z,100617.41
2022-11-10T10:49:50.649Z,100614.72
2022-11-10T10:55:12.569Z,100620.84
2022-11-10T11:00:42.033Z,100614.03
2022-11-10T11:06:08.293Z,100610.69
2022-11-10T11:11:31.316Z,100613.25
2022-11-10T11:16:55.776Z,100610.16
2022-11-10T11:22:49.217Z,100622.34
2022-11-10T11:28:31.299Z,100628.31
2022-11-10T11:34:17.968Z,100635.88
2022-11-10T11:39:53.455Z,100644.50
2022-11-10T11:45:39.489Z,100636.09
2022-11-10T11:51:11.238Z,100647.41
2022-11-10T11:56:35.346Z,100644.41
2022-11-10T12:02:32.445Z,100647.00
2022-11-10T12:08:05.032Z,100644.00
2022-11-10T12:13:50.133Z,100645.31
2022-11-10T12:19:32.256Z,100650.81
2022-11-10T12:25:01.479Z,100647.75
2022-11-10T12:30:21.877Z,100649.25
2022-11-10T12:35:44.348Z,100644.47
2022-11-10T12:41:11.347Z,100652.44
2022-11-10T12:46:32.613Z,100652.78
2022-11-10T12:52:18.588Z,100660.38
2022-11-10T12:57:39.139Z,100658.72
2022-11-10T13:02:59.823Z,100661.31
2022-11-10T13:08:41.544Z,100661.97
2022-11-10T13:14:23.853Z,100663.06
2022-11-10T13:19:49.868Z,100670.09
2022-11-10T13:25:37.297Z,100676.34
2022-11-10T13:30:59.083Z,100676.78
2022-11-10T13:36:50.582Z,100678.00
2022-11-10T13:42:11.822Z,100689.88
2022-11-10T13:47:58.067Z,100700.06
2022-11-10T13:53:18.352Z,100703.56
2022-11-10T13:58:44.334Z,100710.50
2022-11-10T14:04:06.964Z,100709.34
2022-11-10T14:09:35.205Z,100708.38
2022-11-10T14:15:02.619Z,100719.75
2022-11-10T14:20:31.972Z,100730.69
2022-11-10T14:26:19.256Z,100727.59
2022-11-10T14:31:44.006Z,100728.97
2022-11-10T14:37:04.767Z,100741.38
2022-11-10T14:42:33.480Z,100763.78
2022-11-10T14:47:56.052Z,100771.03
2022-11-10T14:53:33.496Z,100774.56
2022-11-10T14:58:55.743Z,100778.28
2022-11-10T15:04:16.713Z,100771.34
2022-11-10T15:09:37.568Z,100771.16
2022-11-10T15:14:59.862Z,100778.13
2022-11-10T15:20:34.817Z,100788.03
2022-11-10T15:25:56.047Z,100793.44
2022-11-10T15:31:30.932Z,100807.44
2022-11-10T15:37:09.591Z,100811.19
2022-11-10T15:42:30.160Z,100813.47
2022-11-10T15:47:50.597Z,100828.44
2022-11-10T15:53:15.761Z,100844.78
2022-11-10T15:58:36.707Z,100855.34
2022-11-10T16:03:57.455Z,100853.13
2022-11-10T16:09:20.974Z,100853.69
2022-11-10T16:14:46.891Z,100866.88
2022-11-10T16:20:14.438Z,100857.88
2022-11-10T16:25:38.856Z,100879.81
2022-11-10T16:31:00.789Z,100879.41
2022-11-10T16:36:27.029Z,100893.09
2022-11-10T16:41:47.742Z,100901.03
2022-11-10T16:47:18.665Z,100911.53
2022-11-10T16:52:39.674Z,100911.16
2022-11-10T16:57:59.772Z,100916.00
2022-11-10T17:03:37.378Z,100915.25
2022-11-10T17:09:07.729Z,100917.66
2022-11-10T17:14:29.568Z,100921.94
2022-11-10T17:19:52.238Z,100922.41
2022-11-10T17:25:23.128Z,100924.72
2022-11-10T17:30:47.462Z,100926.59
2022-11-10T17:36:18.901Z,100933.09
2022-11-10T17:41:38.821Z,100948.28
2022-11-10T17:46:59.096Z,100953.97
2022-11-10T17:52:20.796Z,100955.53
2022-11-10T17:57:41.214Z,100960.91
2022-11-10T18:03:02.940Z,100960.91
2022-11-10T18:08:26.361Z,100960.50
2022-11-10T18:13:50.519Z,100973.09
2022-11-10T18:19:14.864Z,100961.22
2022-11-10T18:24:34.839Z,100962.94
2022-11-10T18:29:55.782Z,100967.44
2022-11-10T18:35:17.848Z,100982.75
2022-11-10T18:40:38.285Z,100982.31
2022-11-10T18:45:58.358Z,100984.84
2022-11-10T18:51:18.844Z,100998.47
2022-11-10T18:56:39.015Z,100990.41
2022-11-10T19:01:59.032Z,101005.69
2022-11-10T19:07:19.637Z,101002.97
2022-11-10T19:12:40.047Z,100994.78
2022-11-10T19:18:00.134Z,100999.59
2022-11-10T19:23:20.810Z,101012.31
2022-11-10T19:28:42.481Z,101004.97
2022-11-10T19:34:02.959Z,100997.88
2022-11-10T19:39:25.193Z,101003.56
2022-11-10T19:44:46.192Z,101011.63
2022-11-10T19:50:07.007Z,100991.22
2022-11-10T19:55:28.912Z,101003.41
2022-11-10T20:00:50.749Z,101016.41
2022-11-10T20:06:15.883Z,101019.66
2022-11-10T20:11:36.090Z,101029.97
2022-11-10T20:16:57.156Z,101034.63
2022-11-10T20:22:17.531Z,101028.78
2022-11-10T20:27:38.015Z,101053.66
2022-11-10T20:32:59.161Z,101051.13
2022-11-10T20:38:19.948Z,101062.44
2022-11-10T20:43:40.757Z,101077.53
2022-11-10T20:49:00.917Z,101079.41
2022-11-10T20:54:23.322Z,101065.41
2022-11-10T20:59:45.153Z,101060.34
2022-11-10T21:05:06.021Z,101052.59
2022-11-10T21:10:26.489Z,101047.31
2022-11-10T21:15:53.496Z,101049.53
2022-11-10T21:21:22.785Z,101056.69
2022-11-10T21:26:43.152Z,101056.25
2022-11-10T21:32:03.817Z,101053.25
2022-11-10T21:37:25.991Z,101056.84
2022-11-10T21:42:46.452Z,101065.06
2022-11-10T21:48:07.980Z,101054.41
2022-11-10T21:53:28.699Z,101074.34
2022-11-10T21:58:48.988Z,101077.66
2022-11-10T22:04:09.151Z,101074.69
2022-11-10T22:09:47.856Z,101078.72
2022-11-10T22:15:33.397Z,101071.34
2022-11-10T22:20:53.664Z,101072.75
2022-11-10T22:26:14.617Z,101090.25
2022-11-10T22:31:35.150Z,101122.22
2022-11-10T22:36:55.176Z,101115.91
2022-11-10T22:42:34.081Z,101106.09
2022-11-10T22:48:13.403Z,101113.75
2022-11-10T22:53:37.512Z,101103.78
2022-11-10T22:59:00.107Z,101108.66
2022-11-10T23:04:21.938Z,101101.31
2022-11-10T23:09:41.957Z,101107.06
2022-11-10T23:15:02.279Z,101106.47
2022-11-10T23:20:22.410Z,101107.44
2022-11-10T23:25:43.417Z,101098.44
2022-11-10T23:31:03.598Z,101100.03
2022-11-10T23:36:25.471Z,101096.63
2022-11-10T23:41:45.406Z,101107.03
2022-11-10T23:47:05.834Z,101115.88
2022-11-10T23:52:26.945Z,101120.06
2022-11-10T23:57:47.049Z,101117.78
